createdAt,value
2023-07-17T00:01:31.473Z,59.01
2023-07-17T00:03:59.727Z,58.80
2023-07-17T00:06:27.825Z,59.36
2023-07-17T00:08:56.189Z,59.40
2023-07-17T00:11:24.613Z,59.06
2023-07-17T00:13:55.585Z,59.23
2023-07-17T00:16:24.270Z,59.23
2023-07-17T00:18:52.547Z,59.23
2023-07-17T00:21:21.868Z,59.69
2023-07-17T00:23:50.210Z,59.46
2023-07-17T00:26:18.255Z,59.92
2023-07-17T00:28:46.710Z,60.36
2023-07-17T00:31:16.315Z,59.98
2023-07-17T00:33:44.786Z,60.31
2023-07-17T00:36:12.833Z,61.46
2023-07-17T00:38:41.106Z,61.51
2023-07-17T00:41:09.172Z,61.35
2023-07-17T00:43:37.554Z,61.21
2023-07-17T00:46:05.850Z,61.10
2023-07-17T00:48:35.534Z,61.16
2023-07-17T00:51:04.987Z,61.07
2023-07-17T00:53:34.570Z,60.50
2023-07-17T00:56:02.601Z,60.62
2023-07-17T00:58:31.003Z,60.87
2023-07-17T01:00:59.438Z,60.78
2023-07-17T01:03:27.812Z,60.01
2023-07-17T01:05:58.929Z,59.03
2023-07-17T01:08:27.251Z,59.16
2023-07-17T01:10:56.678Z,59.58
2023-07-17T01:13:24.966Z,59.74
2023-07-17T01:15:53.325Z,59.97
2023-07-17T01:18:22.141Z,60.35
2023-07-17T01:20:50.537Z,60.39
2023-07-17T01:23:20.121Z,61.51
2023-07-17T01:25:48.219Z,61.22
2023-07-17T01:28:16.588Z,61.24
2023-07-17T01:30:44.603Z,61.21
2023-07-17T01:33:12.919Z,61.24
2023-07-17T01:35:41.049Z,61.05
2023-07-17T01:38:09.635Z,61.09
2023-07-17T01:40:38.954Z,61.22
2023-07-17T01:43:07.891Z,61.04
2023-07-17T01:45:35.959Z,60.86
2023-07-17T01:48:04.481Z,61.20
2023-07-17T01:50:32.546Z,61.44
2023-07-17T01:53:00.775Z,61.64
2023-07-17T01:55:28.875Z,61.71
2023-07-17T01:58:00.730Z,62.07
2023-07-17T02:00:28.795Z,62.66
2023-07-17T02:02:57.090Z,62.92
2023-07-17T02:05:25.261Z,64.04
2023-07-17T02:07:53.519Z,64.13
2023-07-17T02:10:21.565Z,64.47
2023-07-17T02:12:49.841Z,64.22
2023-07-17T02:15:19.422Z,64.85
2023-07-17T02:17:47.773Z,65.45
2023-07-17T02:20:15.861Z,65.30
2023-07-17T02:22:44.213Z,65.56
2023-07-17T02:25:13.088Z,66.26
2023-07-17T02:27:41.362Z,65.87
2023-07-17T02:30:09.880Z,66.28
2023-07-17T02:32:39.713Z,66.44
2023-07-17T02:35:08.099Z,67.17
2023-07-17T02:37:36.724Z,67.03
2023-07-17T02:40:11.910Z,67.90
2023-07-17T02:42:40.321Z,69.03
2023-07-17T02:45:09.417Z,69.30
2023-07-17T02:47:39.153Z,69.61
2023-07-17T02:50:08.375Z,69.74
2023-07-17T02:52:37.561Z,69.67
2023-07-17T02:55:06.384Z,70.33
2023-07-17T02:57:35.557Z,71.45
2023-07-17T03:00:05.920Z,71.66
2023-07-17T03:02:34.306Z,70.93
2023-07-17T03:05:05.743Z,71.61
2023-07-17T03:07:34.342Z,71.54
2023-07-17T03:10:02.386Z,71.21
2023-07-17T03:12:30.746Z,71.21
2023-07-17T03:14:59.622Z,70.98
2023-07-17T03:17:28.203Z,70.16
2023-07-17T03:19:56.181Z,70.35
2023-07-17T03:22:25.843Z,69.69
2023-07-17T03:24:53.956Z,70.20
2023-07-17T03:27:22.643Z,69.85
2023-07-17T03:29:50.653Z,69.98
2023-07-17T03:32:19.023Z,69.96
2023-07-17T03:34:47.000Z,70.18
2023-07-17T03:37:16.556Z,70.33
2023-07-17T03:39:45.914Z,69.89
2023-07-17T03:42:15.481Z,70.26
2023-07-17T03:44:43.592Z,71.08
2023-07-17T03:47:12.120Z,72.02
2023-07-17T03:49:40.528Z,71.53
2023-07-17T03:52:09.133Z,71.54
2023-07-17T03:54:37.176Z,70.78
2023-07-17T03:57:07.253Z,71.32
2023-07-17T03:59:49.832Z,71.07
2023-07-17T04:02:22.169Z,70.44
2023-07-17T04:04:51.416Z,70.78
2023-07-17T04:07:19.957Z,70.49
2023-07-17T04:09:48.188Z,70.50
2023-07-17T04:12:18.437Z,70.32
2023-07-17T04:14:46.597Z,70.13
2023-07-17T04:17:14.957Z,70.81
2023-07-17T04:19:43.237Z,70.52
2023-07-17T04:22:11.481Z,70.67
2023-07-17T04:24:39.507Z,71.06
2023-07-17T04:27:07.858Z,70.29
2023-07-17T04:29:37.654Z,70.30
2023-07-17T04:32:07.981Z,70.24
2023-07-17T04:34:36.040Z,71.34
2023-07-17T04:37:04.720Z,70.68
2023-07-17T04:39:34.071Z,71.02
2023-07-17T04:42:05.959Z,71.50
2023-07-17T04:44:34.032Z,71.24
2023-07-17T04:47:05.771Z,71.56
2023-07-17T04:49:34.128Z,71.03
2023-07-17T04:52:02.454Z,71.55
2023-07-17T04:54:30.540Z,71.28
2023-07-17T04:56:58.885Z,71.00
2023-07-17T04:59:27.178Z,70.33
2023-07-17T05:01:55.561Z,70.37
2023-07-17T05:04:26.256Z,70.02
2023-07-17T05:06:54.588Z,70.57
2023-07-17T05:09:22.987Z,70.03
2023-07-17T05:11:52.084Z,70.01
2023-07-17T05:14:20.108Z,69.88
2023-07-17T05:16:48.533Z,69.65
2023-07-17T05:19:16.897Z,69.13
2023-07-17T05:21:46.821Z,68.92
2023-07-17T05:24:14.934Z,68.71
2023-07-17T05:26:44.404Z,68.38
2023-07-17T05:29:12.474Z,69.00
2023-07-17T05:31:41.362Z,68.79
2023-07-17T05:34:09.366Z,68.63
2023-07-17T05:36:37.641Z,67.63
2023-07-17T05:39:08.593Z,67.23
2023-07-17T05:41:37.693Z,67.37
2023-07-17T05:44:05.806Z,67.64
2023-07-17T05:46:34.305Z,67.96
2023-07-17T05:49:02.444Z,68.60
2023-07-17T05:51:30.977Z,68.88
2023-07-17T05:53:59.965Z,68.43
2023-07-17T05:56:29.568Z,68.11
2023-07-17T05:58:57.650Z,68.37
2023-07-17T06:01:25.958Z,68.44
2023-07-17T06:03:55.431Z,68.05
2023-07-17T06:06:23.922Z,67.56
2023-07-17T06:08:52.110Z,66.92
2023-07-17T06:11:20.422Z,67.41
2023-07-17T06:13:49.882Z,67.60
2023-07-17T06:16:19.547Z,67.57
2023-07-17T06:18:47.653Z,67.13
2023-07-17T06:21:16.121Z,66.89
2023-07-17T06:23:44.561Z,67.38
2023-07-17T06:26:12.872Z,66.92
2023-07-17T06:28:40.887Z,66.83
2023-07-17T06:31:10.643Z,66.21
2023-07-17T06:33:38.747Z,66.13
2023-07-17T06:36:07.028Z,65.55
2023-07-17T06:38:35.082Z,65.32
2023-07-17T06:41:04.562Z,65.23
2023-07-17T06:43:32.640Z,64.41
2023-07-17T06:46:01.095Z,64.23
2023-07-17T06:48:30.532Z,64.31
2023-07-17T06:50:58.877Z,63.60
2023-07-17T06:53:26.899Z,63.65
2023-07-17T06:55:58.657Z,63.49
2023-07-17T06:58:26.732Z,63.36
2023-07-17T07:00:58.405Z,63.26
2023-07-17T07:03:28.096Z,63.35
2023-07-17T07:05:58.720Z,63.24
2023-07-17T07:08:27.455Z,62.41
2023-07-17T07:10:56.929Z,62.39
2023-07-17T07:13:25.564Z,61.97
2023-07-17T07:15:54.189Z,61.83
2023-07-17T07:18:22.708Z,60.47
2023-07-17T07:20:52.535Z,60.15
2023-07-17T07:23:22.355Z,59.45
2023-07-17T07:25:50.782Z,59.19
2023-07-17T07:28:18.761Z,59.29
2023-07-17T07:30:47.001Z,57.37
2023-07-17T07:33:15.144Z,57.48
2023-07-17T07:35:45.240Z,56.44
2023-07-17T07:38:13.282Z,56.52
2023-07-17T07:40:42.889Z,57.01
2023-07-17T07:43:10.918Z,56.56
2023-07-17T07:45:39.239Z,56.35
2023-07-17T07:48:07.981Z,56.50
2023-07-17T07:50:36.328Z,55.96
2023-07-17T07:53:04.609Z,55.52
2023-07-17T07:55:32.968Z,56.38
2023-07-17T07:58:02.695Z,55.54
2023-07-17T08:00:31.303Z,56.51
2023-07-17T08:02:59.415Z,56.65
2023-07-17T08:05:27.874Z,56.12
2023-07-17T08:07:55.893Z,55.51
2023-07-17T08:10:25.295Z,53.92
2023-07-17T08:12:53.356Z,52.57
2023-07-17T08:15:23.064Z,53.19
2023-07-17T08:17:51.638Z,53.10
2023-07-17T08:20:20.011Z,53.32
2023-07-17T08:22:49.543Z,51.43
2023-07-17T08:25:18.063Z,51.03
2023-07-17T08:27:46.192Z,50.41
2023-07-17T08:30:14.752Z,50.79
2023-07-17T08:32:44.182Z,49.78
2023-07-17T08:35:12.714Z,47.87
2023-07-17T08:37:40.794Z,47.01
2023-07-17T08:40:10.905Z,46.41
2023-07-17T08:42:39.784Z,45.08
2023-07-17T08:45:09.461Z,42.70
2023-07-17T08:47:37.749Z,44.90
2023-07-17T08:50:09.232Z,44.92
2023-07-17T08:52:37.498Z,46.29
2023-07-17T08:55:06.750Z,45.97
2023-07-17T08:57:35.710Z,46.32
2023-07-17T09:00:05.898Z,46.71
2023-07-17T09:02:34.289Z,45.05
2023-07-17T09:05:04.695Z,43.62
2023-07-17T09:07:34.209Z,43.54
2023-07-17T09:10:15.833Z,43.39
2023-07-17T09:12:44.662Z,42.76
2023-07-17T09:15:17.208Z,42.16
2023-07-17T09:17:46.094Z,42.53
2023-07-17T09:20:16.524Z,42.08
2023-07-17T09:22:46.267Z,41.55
2023-07-17T09:25:15.941Z,40.97
2023-07-17T09:27:46.070Z,39.58
2023-07-17T09:30:16.198Z,39.44
2023-07-17T09:32:45.252Z,38.58
2023-07-17T09:35:14.300Z,39.20
2023-07-17T09:37:45.606Z,39.16
2023-07-17T09:40:20.539Z,37.35
2023-07-17T09:42:54.580Z,37.23
2023-07-17T09:45:23.030Z,36.94
2023-07-17T09:47:51.734Z,36.79
2023-07-17T09:50:21.298Z,37.55
2023-07-17T09:52:51.463Z,37.85
2023-07-17T09:55:22.501Z,37.67
2023-07-17T09:57:53.340Z,36.91
2023-07-17T10:00:25.160Z,37.28
2023-07-17T10:02:58.396Z,37.24
2023-07-17T10:05:29.326Z,37.70
2023-07-17T10:07:58.307Z,36.21
2023-07-17T10:10:28.088Z,36.67
2023-07-17T10:12:57.530Z,36.81
2023-07-17T10:15:26.228Z,37.20
2023-07-17T10:17:58.819Z,36.67
2023-07-17T10:20:28.765Z,37.18
2023-07-17T10:22:57.009Z,36.68
2023-07-17T10:25:31.483Z,35.54
2023-07-17T10:28:01.178Z,35.15
2023-07-17T10:30:31.443Z,35.91
2023-07-17T10:33:07.678Z,35.31
2023-07-17T10:35:50.525Z,35.58
2023-07-17T10:38:20.020Z,34.95
2023-07-17T10:40:49.716Z,36.08
2023-07-17T10:43:19.993Z,35.68
2023-07-17T10:45:49.716Z,35.60
2023-07-17T10:48:21.757Z,35.24
2023-07-17T10:50:52.676Z,34.66
2023-07-17T10:53:21.655Z,35.16
2023-07-17T10:55:51.481Z,33.48
2023-07-17T10:58:20.923Z,33.16
2023-07-17T11:00:49.750Z,34.04
2023-07-17T11:03:24.083Z,32.98
2023-07-17T11:05:55.919Z,34.43
2023-07-17T11:08:26.703Z,33.41
2023-07-17T11:10:57.249Z,32.95
2023-07-17T11:13:31.960Z,32.51
2023-07-17T11:16:09.375Z,32.46
2023-07-17T11:18:47.956Z,31.96
2023-07-17T11:21:17.832Z,31.72
2023-07-17T11:23:48.903Z,31.68
2023-07-17T11:26:20.670Z,31.46
2023-07-17T11:28:53.287Z,31.46
2023-07-17T11:31:22.945Z,31.00
2023-07-17T11:33:52.583Z,31.54
2023-07-17T11:36:26.347Z,31.90
2023-07-17T11:39:03.947Z,31.75
2023-07-17T11:41:44.165Z,30.31
2023-07-17T11:44:12.367Z,30.48
2023-07-17T11:46:41.940Z,30.66
2023-07-17T11:49:11.842Z,30.74
2023-07-17T11:51:42.599Z,30.76
2023-07-17T11:54:11.041Z,30.24
2023-07-17T11:56:42.273Z,30.26
2023-07-17T11:59:25.516Z,29.77
2023-07-17T12:01:54.114Z,29.38
2023-07-17T12:04:24.819Z,30.32
2023-07-17T12:06:55.272Z,30.36
2023-07-17T12:09:24.684Z,30.00
2023-07-17T12:11:53.140Z,29.88
2023-07-17T12:14:22.713Z,30.02
2023-07-17T12:16:51.365Z,29.85
2023-07-17T12:19:20.719Z,29.63
2023-07-17T12:21:50.156Z,29.41
2023-07-17T12:24:18.314Z,28.87
2023-07-17T12:26:46.918Z,29.45
2023-07-17T12:29:14.988Z,29.59
2023-07-17T12:31:44.775Z,29.67
2023-07-17T12:34:13.016Z,28.30
2023-07-17T12:36:41.453Z,29.46
2023-07-17T12:39:13.965Z,28.44
2023-07-17T12:41:42.515Z,28.53
2023-07-17T12:44:10.823Z,28.60
2023-07-17T12:46:39.396Z,28.53
2023-07-17T12:49:09.032Z,28.49
2023-07-17T12:51:37.576Z,28.00
2023-07-17T12:54:06.834Z,28.26
2023-07-17T12:56:35.061Z,28.40
2023-07-17T12:59:03.522Z,28.39
2023-07-17T13:01:32.028Z,28.38
2023-07-17T13:04:01.381Z,27.93
2023-07-17T13:06:31.311Z,28.73
2023-07-17T13:09:01.036Z,28.45
2023-07-17T13:11:29.536Z,28.79
2023-07-17T13:13:58.180Z,28.00
2023-07-17T13:16:26.325Z,28.14
2023-07-17T13:18:57.174Z,28.81
2023-07-17T13:21:26.906Z,28.77
2023-07-17T13:23:57.091Z,28.91
2023-07-17T13:26:27.610Z,28.75
2023-07-17T13:28:56.309Z,29.34
2023-07-17T13:31:34.284Z,28.84
2023-07-17T13:34:02.957Z,28.40
2023-07-17T13:39:18.105Z,28.42
2023-07-17T13:41:51.592Z,28.19
2023-07-17T13:44:22.272Z,28.48
2023-07-17T13:46:50.898Z,27.67
2023-07-17T13:49:19.446Z,28.11
2023-07-17T13:51:49.094Z,27.45
2023-07-17T13:54:21.692Z,27.58
2023-07-17T13:59:21.556Z,27.04
2023-07-17T14:01:53.761Z,27.71
2023-07-17T14:04:23.868Z,27.21
2023-07-17T14:06:53.823Z,26.79
2023-07-17T14:09:24.285Z,27.39
2023-07-17T14:11:53.239Z,26.14
2023-07-17T14:14:23.303Z,26.60
2023-07-17T14:16:53.599Z,26.62
2023-07-17T14:19:24.087Z,26.88
2023-07-17T14:21:54.105Z,26.89
2023-07-17T14:24:27.651Z,26.75
2023-07-17T14:26:56.696Z,26.79
2023-07-17T14:29:26.020Z,26.46
2023-07-17T14:31:55.015Z,27.03
2023-07-17T14:34:27.261Z,26.21
2023-07-17T14:36:55.542Z,25.79
2023-07-17T14:39:23.952Z,26.16
2023-07-17T14:41:53.479Z,26.37
2023-07-17T14:44:24.626Z,26.92
2023-07-17T14:46:53.067Z,26.89
2023-07-17T14:49:21.357Z,26.97
2023-07-17T14:51:49.932Z,26.45
2023-07-17T14:54:18.128Z,25.93
2023-07-17T14:56:47.180Z,25.59
2023-07-17T14:59:17.521Z,25.21
2023-07-17T15:01:46.192Z,24.94
2023-07-17T15:04:14.822Z,24.97
2023-07-17T15:06:44.252Z,24.78
2023-07-17T15:09:12.637Z,25.00
2023-07-17T15:11:41.002Z,24.76
2023-07-17T15:14:20.905Z,24.25
2023-07-17T15:16:51.279Z,23.99
2023-07-17T15:19:19.876Z,23.55
2023-07-17T15:21:48.293Z,24.47
2023-07-17T15:24:16.480Z,23.90
2023-07-17T15:26:45.110Z,23.71
2023-07-17T15:29:13.382Z,23.62
2023-07-17T15:31:42.327Z,23.64
2023-07-17T15:34:11.816Z,24.67
2023-07-17T15:36:40.087Z,24.12
2023-07-17T15:39:08.218Z,23.27
2023-07-17T15:41:36.490Z,22.56
2023-07-17T15:44:04.831Z,21.99
2023-07-17T15:46:33.167Z,22.20
2023-07-17T15:49:01.218Z,22.38
2023-07-17T15:51:30.887Z,22.21
2023-07-17T15:53:58.984Z,22.51
2023-07-17T15:56:27.360Z,22.53
2023-07-17T15:58:55.435Z,22.46
2023-07-17T16:01:23.877Z,22.94
2023-07-17T16:03:52.076Z,23.42
2023-07-17T16:06:20.650Z,23.84
2023-07-17T16:08:50.265Z,23.41
2023-07-17T16:11:18.606Z,23.20
2023-07-17T16:13:46.701Z,24.25
2023-07-17T16:16:15.043Z,25.37
2023-07-17T16:18:43.057Z,24.79
2023-07-17T16:21:11.325Z,24.70
2023-07-17T16:23:39.394Z,25.05
2023-07-17T16:26:09.122Z,24.94
2023-07-17T16:28:37.250Z,25.43
2023-07-17T16:31:05.777Z,26.11
2023-07-17T16:33:34.153Z,26.61
2023-07-17T16:36:02.416Z,26.26
2023-07-17T16:38:30.510Z,26.13
2023-07-17T16:40:58.839Z,25.73
2023-07-17T16:43:28.328Z,25.34
2023-07-17T16:45:56.645Z,26.02
2023-07-17T16:48:24.773Z,26.33
2023-07-17T16:50:53.041Z,26.45
2023-07-17T16:53:21.155Z,26.35
2023-07-17T16:55:49.503Z,25.98
2023-07-17T16:58:17.627Z,25.25
2023-07-17T17:00:47.363Z,26.52
2023-07-17T17:03:15.499Z,26.90
2023-07-17T17:05:43.934Z,25.94
2023-07-17T17:08:11.946Z,25.73
2023-07-17T17:10:40.216Z,25.51
2023-07-17T17:13:08.293Z,25.29
2023-07-17T17:15:36.672Z,25.86
2023-07-17T17:18:06.315Z,25.58
2023-07-17T17:20:34.805Z,25.33
2023-07-17T17:23:02.908Z,25.79
2023-07-17T17:25:31.228Z,26.15
2023-07-17T17:27:59.287Z,25.45
2023-07-17T17:30:28.286Z,26.06
2023-07-17T17:32:56.549Z,26.79
2023-07-17T17:35:26.386Z,25.38
2023-07-17T17:37:54.450Z,25.73
2023-07-17T17:40:22.700Z,25.91
2023-07-17T17:42:50.763Z,26.45
2023-07-17T17:45:19.046Z,26.53
2023-07-17T17:47:47.053Z,26.85
2023-07-17T17:50:17.615Z,26.63
2023-07-17T17:52:47.006Z,26.86
2023-07-17T17:55:15.317Z,26.44
2023-07-17T17:57:43.378Z,26.47
2023-07-17T18:00:13.074Z,26.30
2023-07-17T18:02:50.270Z,26.04
2023-07-17T18:05:18.694Z,26.13
2023-07-17T18:07:48.112Z,27.15
2023-07-17T18:10:16.586Z,27.25
2023-07-17T18:12:44.687Z,27.18
2023-07-17T18:15:12.996Z,28.10
2023-07-17T18:17:41.157Z,27.64
2023-07-17T18:20:11.773Z,27.71
2023-07-17T18:22:40.072Z,28.55
2023-07-17T18:25:12.844Z,29.01
2023-07-17T18:27:41.586Z,29.67
2023-07-17T18:30:10.448Z,29.75
2023-07-17T18:32:38.609Z,29.17
2023-07-17T18:35:07.884Z,29.42
2023-07-17T18:37:36.334Z,29.66
2023-07-17T18:40:09.448Z,29.14
2023-07-17T18:42:38.893Z,28.74
2023-07-17T18:45:11.258Z,28.59
2023-07-17T18:47:40.142Z,28.89
2023-07-17T18:50:09.419Z,28.93
2023-07-17T18:52:37.630Z,29.58
2023-07-17T18:55:07.164Z,29.54
2023-07-17T18:57:35.289Z,29.74
2023-07-17T19:00:07.565Z,29.56
2023-07-17T19:02:35.715Z,29.79
2023-07-17T19:05:04.836Z,30.35
2023-07-17T19:07:32.879Z,29.81
2023-07-17T19:10:01.273Z,30.25
2023-07-17T19:12:29.515Z,30.88
2023-07-17T19:14:57.838Z,30.87
2023-07-17T19:17:27.338Z,30.80
2023-07-17T19:19:55.689Z,31.29
2023-07-17T19:22:23.976Z,31.16
2023-07-17T19:24:52.256Z,31.58
2023-07-17T19:27:20.275Z,31.83
2023-07-17T19:29:48.595Z,32.14
2023-07-17T19:32:17.913Z,32.24
2023-07-17T19:34:47.616Z,32.13
2023-07-17T19:37:15.885Z,32.50
2023-07-17T19:39:44.296Z,32.57
2023-07-17T19:42:12.350Z,32.71
2023-07-17T19:44:40.765Z,33.01
2023-07-17T19:47:08.961Z,32.91
2023-07-17T19:49:37.327Z,32.86
2023-07-17T19:52:07.335Z,33.04
2023-07-17T19:54:35.641Z,32.74
2023-07-17T19:57:03.735Z,33.11
2023-07-17T19:59:31.997Z,33.08
2023-07-17T20:02:00.010Z,32.90
2023-07-17T20:04:28.494Z,33.58
2023-07-17T20:06:56.597Z,33.85
2023-07-17T20:09:26.396Z,33.84
2023-07-17T20:11:54.432Z,34.54
2023-07-17T20:14:22.978Z,34.44
2023-07-17T20:16:53.715Z,34.64
2023-07-17T20:19:22.039Z,34.80
2023-07-17T20:21:50.100Z,34.88
2023-07-17T20:24:18.442Z,35.01
2023-07-17T20:26:47.965Z,35.05
2023-07-17T20:29:16.262Z,35.19
2023-07-17T20:31:44.460Z,35.07
2023-07-17T20:34:12.903Z,35.31
2023-07-17T20:36:40.952Z,35.36
2023-07-17T20:39:10.538Z,35.37
2023-07-17T20:41:38.722Z,35.50
2023-07-17T20:44:08.423Z,35.68
2023-07-17T20:46:36.601Z,35.60
2023-07-17T20:49:05.150Z,35.66
2023-07-17T20:51:35.064Z,35.71
2023-07-17T20:54:03.444Z,35.43
2023-07-17T20:56:31.782Z,35.55
2023-07-17T20:59:00.197Z,36.00
2023-07-17T21:01:29.938Z,36.30
2023-07-17T21:03:59.754Z,36.46
2023-07-17T21:06:28.586Z,36.84
2023-07-17T21:08:57.330Z,36.71
2023-07-17T21:11:25.847Z,36.93
2023-07-17T21:13:54.363Z,37.32
2023-07-17T21:16:22.550Z,37.39
2023-07-17T21:18:52.173Z,37.59
2023-07-17T21:21:20.347Z,37.70
2023-07-17T21:23:48.885Z,37.65
2023-07-17T21:26:16.936Z,37.71
2023-07-17T21:28:58.170Z,37.85
2023-07-17T21:31:26.430Z,37.96
2023-07-17T21:33:56.259Z,37.83
2023-07-17T21:36:24.392Z,38.06
2023-07-17T21:38:52.781Z,38.00
2023-07-17T21:41:21.147Z,38.10
2023-07-17T21:43:50.669Z,42.15
2023-07-17T21:46:19.070Z,44.32
2023-07-17T21:48:47.378Z,42.87
2023-07-17T21:51:20.614Z,41.46
2023-07-17T21:53:49.149Z,41.01
2023-07-17T21:56:17.870Z,41.23
2023-07-17T21:58:46.140Z,41.88
2023-07-17T22:01:14.672Z,43.98
2023-07-17T22:03:43.160Z,44.77
2023-07-17T22:06:31.316Z,43.85
2023-07-17T22:08:59.671Z,43.27
2023-07-17T22:11:27.753Z,43.05
2023-07-17T22:13:56.165Z,42.13
2023-07-17T22:16:24.800Z,41.06
2023-07-17T22:18:53.095Z,40.96
2023-07-17T22:21:21.582Z,40.81
2023-07-17T22:23:51.575Z,41.30
2023-07-17T22:26:19.639Z,41.36
2023-07-17T22:28:48.096Z,40.59
2023-07-17T22:31:16.387Z,40.69
2023-07-17T22:33:44.814Z,39.87
2023-07-17T22:36:12.825Z,39.88
2023-07-17T22:38:41.101Z,40.28
2023-07-17T22:41:10.454Z,41.44
2023-07-17T22:43:38.833Z,41.58
2023-07-17T22:46:25.641Z,40.93
2023-07-17T22:48:53.971Z,40.65
2023-07-17T22:51:23.165Z,40.87
2023-07-17T22:53:52.250Z,41.10
2023-07-17T22:56:22.159Z,41.40
2023-07-17T22:58:50.455Z,41.66
2023-07-17T23:01:18.751Z,42.02
2023-07-17T23:03:48.105Z,42.09
2023-07-17T23:06:16.867Z,42.34
2023-07-17T23:08:45.216Z,42.53
2023-07-17T23:11:13.285Z,43.01
2023-07-17T23:13:42.908Z,43.68
2023-07-17T23:16:11.077Z,43.98
2023-07-17T23:18:39.433Z,43.99
2023-07-17T23:21:07.537Z,44.33
2023-07-17T23:23:54.129Z,44.77
2023-07-17T23:26:22.566Z,45.75
2023-07-17T23:28:52.388Z,46.00
2023-07-17T23:31:20.842Z,45.14
2023-07-17T23:33:49.616Z,44.52
2023-07-17T23:36:17.703Z,44.92
2023-07-17T23:38:46.201Z,45.41
2023-07-17T23:41:14.251Z,45.62
2023-07-17T23:43:42.660Z,46.33
2023-07-17T23:46:12.686Z,47.67
2023-07-17T23:48:41.029Z,47.79
2023-07-17T23:51:09.059Z,47.27
2023-07-17T23:53:37.358Z,46.86
2023-07-17T23:56:06.045Z,46.79
2023-07-17T23:58:34.473Z,46.45
